Bevis, Ohio
Current Conditions -  °F | °C
As of 11:35 AM on Friday 31 Oct 2014 (Local Time) from KI67 Reporting Station
Overcast Overcast  
Wind Chill: 41°   Ceiling: 3800
Heat Index: 45°   Visibility: 10mi
Dew Point: 41°   Wind: 6mph
Humidity: 87%   Direction: 290°WNW
Pressure: 29.96"   Gusts: NA
Location:  39.2201°N, 84.6531°W
Report Text: KI67 311535Z AUTO 29005KT 10SM OVC038 07/05 A2996 RMK AO1 P0001
Loading
Personal Weather Stations






























Interactive Weather Map
Tropical Storm Tracking
New forecast layout! Learn more

10-Day Weather Forecast

Advertisements
Track Severe Weather on mobile